Time;durP1;ratioP1;P1;durP2;ratioP2;P2;SDS_P1;SDS_P2;PMS_P1;PMS_P2;Temp;Humidity;BMP_temperature;BMP_pressure;BME280_temperature;BME280_humidity;BME280_pressure;Samples;Min_cycle;Max_cycle;Signal;HPM_P1;HPM_P2
2021/09/05 00:00:56;;;;;;;1.92;1.42;;;;;;;8.85;80.79;99043.78;5031972;28;20095;-60
2021/09/05 00:03:22;;;;;;;2.13;1.60;;;;;;;8.87;80.23;99044.56;5032001;28;20071;-61
2021/09/05 00:05:48;;;;;;;2.45;1.88;;;;;;;8.82;80.03;99027.50;5031456;28;20037;-60
2021/09/05 00:08:13;;;;;;;1.75;1.50;;;;;;;8.95;79.55;99051.22;5029895;28;20037;-60
2021/09/05 00:10:39;;;;;;;2.30;1.45;;;;;;;8.99;79.29;99051.03;5032057;28;20041;-60
2021/09/05 00:13:05;;;;;;;3.05;1.42;;;;;;;9.06;78.83;99056.81;5030444;28;20443;-61
2021/09/05 00:15:31;;;;;;;1.73;1.45;;;;;;;9.08;78.76;99055.88;5030890;28;20065;-60
2021/09/05 00:17:57;;;;;;;1.98;1.20;;;;;;;9.10;78.56;99061.00;5031364;28;20595;-62
2021/09/05 00:20:23;;;;;;;2.17;1.52;;;;;;;9.12;78.31;99061.78;5031916;28;20033;-60
2021/09/05 00:22:48;;;;;;;5.72;1.50;;;;;;;9.11;77.87;99053.16;5031583;28;20041;-60
2021/09/05 00:25:14;;;;;;;3.05;1.52;;;;;;;9.14;77.93;99055.63;5020726;28;20045;-61
2021/09/05 00:27:40;;;;;;;2.45;1.40;;;;;;;9.17;77.75;99058.09;5029938;28;20053;-60
2021/09/05 00:30:07;;;;;;;1.80;1.30;;;;;;;9.16;77.63;99060.78;5031382;28;20037;-61
2021/09/05 00:32:33;;;;;;;2.15;1.70;;;;;;;9.19;77.53;99058.91;5030803;28;20041;-60
2021/09/05 00:34:58;;;;;;;2.90;1.33;;;;;;;9.20;77.00;99076.16;5030069;28;20040;-61
2021/09/05 00:37:24;;;;;;;3.33;1.63;;;;;;;9.24;77.07;99071.69;5020907;28;20421;-60
2021/09/05 00:39:50;;;;;;;1.80;1.30;;;;;;;9.30;76.86;99071.44;5032105;28;20057;-60
2021/09/05 00:42:26;;;;;;;3.22;1.60;;;;;;;9.30;76.70;99072.31;5031173;28;20038;-60
2021/09/05 00:44:53;;;;;;;2.55;1.83;;;;;;;9.28;76.51;99074.09;5030661;28;20041;-60
2021/09/05 00:47:19;;;;;;;2.83;1.80;;;;;;;9.27;76.68;99076.75;5024526;28;20060;-60
2021/09/05 00:49:47;;;;;;;2.45;1.52;;;;;;;9.20;76.30;99078.75;5031514;28;20041;-60
2021/09/05 00:52:13;;;;;;;2.50;1.70;;;;;;;9.18;76.86;99082.28;5063097;28;20543;-61
2021/09/05 00:54:42;;;;;;;2.90;1.70;;;;;;;9.21;76.59;99080.41;5024622;28;20057;-61
2021/09/05 00:57:15;;;;;;;2.78;1.58;;;;;;;9.23;76.17;99080.38;5029067;28;20095;-60
2021/09/05 00:59:48;;;;;;;2.35;1.58;;;;;;;9.23;76.29;99091.59;5029630;28;20115;-61
2021/09/05 01:02:14;;;;;;;2.13;1.50;;;;;;;9.24;76.61;99079.47;5030544;28;20037;-60
2021/09/05 01:04:40;;;;;;;3.00;1.55;;;;;;;9.27;75.98;99087.13;5030239;28;20052;-60
2021/09/05 01:07:08;;;;;;;4.13;1.90;;;;;;;9.30;75.92;99092.19;5030103;28;20041;-60
2021/09/05 01:09:34;;;;;;;2.20;1.52;;;;;;;9.31;75.74;99101.69;5029737;28;20548;-61
2021/09/05 01:12:01;;;;;;;1.95;1.35;;;;;;;9.30;75.74;99095.66;5012657;28;20063;-61
2021/09/05 01:14:27;;;;;;;1.88;1.40;;;;;;;9.30;75.31;99105.16;5029326;28;20095;-60
2021/09/05 01:16:54;;;;;;;1.80;1.40;;;;;;;9.19;75.31;99087.44;5061987;28;20099;-60
2021/09/05 01:19:43;;;;;;;2.75;1.45;;;;;;;9.26;75.54;99107.00;5020041;28;20413;-61
2021/09/05 01:22:21;;;;;;;1.65;1.17;;;;;;;9.16;74.80;99108.28;5029222;28;20199;-61
2021/09/05 01:25:05;;;;;;;1.65;1.17;;;;;;;9.19;74.71;99109.91;5026779;28;20044;-60
2021/09/05 01:27:54;;;;;;;2.00;1.48;;;;;;;9.22;74.68;99108.03;5029694;28;20417;-59
2021/09/05 01:30:39;;;;;;;1.52;1.10;;;;;;;9.27;74.88;99119.09;5013682;28;20041;-60
2021/09/05 01:33:15;;;;;;;4.30;1.50;;;;;;;9.24;75.15;99114.03;5036195;28;20075;-60
2021/09/05 01:36:14;;;;;;;1.90;1.38;;;;;;;9.23;74.92;99119.25;5017984;28;20053;-59
2021/09/05 01:38:58;;;;;;;1.60;1.17;;;;;;;9.23;74.44;99122.72;5011176;28;20043;-60
2021/09/05 01:41:29;;;;;;;2.17;1.30;;;;;;;9.24;74.59;99120.97;5020528;28;20095;-60
2021/09/05 01:44:17;;;;;;;2.38;1.38;;;;;;;9.12;74.47;99103.25;5024501;28;20517;-60
2021/09/05 01:47:01;;;;;;;1.50;1.38;;;;;;;9.23;74.15;99134.81;5010752;28;20624;-60
2021/09/05 01:49:46;;;;;;;1.75;1.23;;;;;;;9.30;73.78;99136.31;5026482;28;20052;-59
2021/09/05 01:52:30;;;;;;;1.67;1.48;;;;;;;9.29;74.00;99138.03;5029034;28;20469;-61
2021/09/05 01:55:24;;;;;;;2.70;1.60;;;;;;;9.28;73.74;99141.53;5029484;28;20060;-61
2021/09/05 01:58:14;;;;;;;2.45;1.30;;;;;;;9.30;73.48;99144.09;5025447;28;20057;-61
2021/09/05 02:00:59;;;;;;;6.57;1.48;;;;;;;9.16;73.60;99117.81;5028209;28;20505;-60
2021/09/05 02:03:54;;;;;;;1.50;1.30;;;;;;;9.21;73.17;99137.47;5009026;28;20103;-60
2021/09/05 02:06:47;;;;;;;1.70;1.30;;;;;;;9.26;74.07;99152.88;5010483;28;20034;-59
2021/09/05 02:09:44;;;;;;;1.65;1.25;;;;;;;9.24;73.92;99152.09;5006165;28;20056;-60
2021/09/05 02:12:39;;;;;;;3.00;1.33;;;;;;;9.25;73.79;99164.16;5025172;28;20054;-61
2021/09/05 02:15:40;;;;;;;2.72;1.20;;;;;;;9.10;73.66;99142.25;5020338;28;20037;-60
2021/09/05 02:18:27;;;;;;;2.03;1.10;;;;;;;9.11;73.30;99169.00;5028930;28;20057;-59
2021/09/05 02:21:09;;;;;;;3.67;1.35;;;;;;;8.95;73.31;99168.69;5027427;28;20358;-60
2021/09/05 02:23:55;;;;;;;1.40;0.90;;;;;;;8.89;73.06;99169.78;5025977;28;20048;-61
2021/09/05 02:26:43;;;;;;;1.80;1.30;;;;;;;8.97;73.56;99176.44;5015893;28;20247;-58
2021/09/05 02:29:27;;;;;;;2.25;1.00;;;;;;;9.03;73.38;99190.03;5029439;28;20037;-60
2021/09/05 02:32:31;;;;;;;1.95;1.00;;;;;;;8.90;73.26;99176.66;5025972;28;20092;-60
2021/09/05 02:35:23;;;;;;;2.83;1.10;;;;;;;9.06;73.31;99199.44;5025204;28;20041;-60
2021/09/05 02:38:26;;;;;;;1.23;1.08;;;;;;;9.11;73.97;99197.50;5026812;28;20053;-59
2021/09/05 02:41:27;;;;;;;2.58;1.17;;;;;;;9.17;73.55;99202.47;5028947;28;20049;-60
2021/09/05 02:44:15;;;;;;;2.07;1.43;;;;;;;9.18;73.61;99201.59;5027968;28;20128;-61
2021/09/05 02:47:01;;;;;;;3.80;1.48;;;;;;;9.19;73.88;99211.06;5017957;28;20084;-61
2021/09/05 02:49:50;;;;;;;4.73;1.57;;;;;;;9.18;73.61;99205.03;5026031;28;20057;-60
2021/09/05 02:52:35;;;;;;;2.63;1.35;;;;;;;9.19;72.87;99216.25;5027042;28;20061;-60
2021/09/05 02:55:33;;;;;;;1.10;1.00;;;;;;;9.15;72.89;99223.31;5020949;28;20096;-61
2021/09/05 02:58:19;;;;;;;1.80;1.27;;;;;;;9.15;72.86;99220.72;5028047;28;20064;-61
2021/09/05 03:01:03;;;;;;;2.00;1.45;;;;;;;9.16;72.66;99219.78;5028216;28;20079;-61
2021/09/05 03:03:48;;;;;;;2.53;1.58;;;;;;;9.16;73.12;99227.56;5028770;28;20037;-60
2021/09/05 03:06:36;;;;;;;2.05;1.42;;;;;;;9.12;72.32;99231.19;5028499;28;20064;-60
2021/09/05 03:09:20;;;;;;;3.10;1.50;;;;;;;9.07;72.41;99232.25;5029987;28;20048;-60
2021/09/05 03:12:07;;;;;;;6.13;1.85;;;;;;;9.12;72.69;99240.69;5027873;28;20072;-61
2021/09/05 03:14:52;;;;;;;2.90;1.55;;;;;;;9.15;72.46;99250.97;5025933;28;20053;-61
2021/09/05 03:17:38;;;;;;;2.65;1.70;;;;;;;9.19;72.43;99257.75;5027686;28;20045;-60
2021/09/05 03:20:32;;;;;;;2.33;1.63;;;;;;;9.18;72.39;99246.53;4996195;28;20045;-59
2021/09/05 03:23:29;;;;;;;1.98;1.48;;;;;;;9.20;72.40;99247.31;5014023;28;20191;-60
2021/09/05 03:26:20;;;;;;;3.25;1.70;;;;;;;9.21;72.23;99250.78;5029349;28;20090;-60
2021/09/05 03:29:24;;;;;;;3.50;2.08;;;;;;;9.14;71.91;99257.91;5026249;28;20533;-60
2021/09/05 03:32:09;;;;;;;2.45;1.63;;;;;;;9.00;72.53;99252.38;5026088;28;20072;-60
2021/09/05 03:35:04;;;;;;;2.42;1.63;;;;;;;9.05;72.82;99278.13;5027030;28;20160;-59
2021/09/05 03:37:48;;;;;;;4.97;1.70;;;;;;;9.12;72.59;99277.84;5029586;28;20135;-61
2021/09/05 03:40:40;;;;;;;3.95;1.40;;;;;;;9.23;72.45;99282.66;5027880;28;20049;-59
2021/09/05 03:43:25;;;;;;;1.98;1.30;;;;;;;9.30;71.90;99281.56;5030867;28;20569;-59
2021/09/05 03:46:23;;;;;;;4.00;1.73;;;;;;;9.35;72.16;99284.84;5029936;28;20045;-60
2021/09/05 03:49:06;;;;;;;3.38;1.42;;;;;;;9.42;71.95;99293.25;5020514;28;20051;-59
2021/09/05 03:51:34;;;;;;;6.32;1.60;;;;;;;9.50;71.12;99286.03;5030336;28;20037;-60
2021/09/05 03:54:00;;;;;;;4.22;2.60;;;;;;;9.56;71.31;99291.00;5064025;28;20053;-61
2021/09/05 03:56:26;;;;;;;2.05;1.40;;;;;;;9.58;70.94;99292.63;5030934;28;20037;-61
2021/09/05 03:58:55;;;;;;;1.63;1.33;;;;;;;9.57;71.41;99296.16;5030851;28;20053;-60
2021/09/05 04:01:24;;;;;;;4.03;2.57;;;;;;;9.45;70.76;99277.56;5030270;28;20060;-60
2021/09/05 04:04:04;;;;;;;1.40;1.05;;;;;;;9.59;70.04;99296.91;5029820;28;20295;-59
2021/09/05 04:06:29;;;;;;;1.95;1.27;;;;;;;9.65;69.72;99307.06;5032008;28;20043;-61
2021/09/05 04:08:57;;;;;;;2.60;1.13;;;;;;;9.71;69.67;99314.66;5030799;28;20091;-60
2021/09/05 04:11:23;;;;;;;2.20;1.35;;;;;;;9.80;69.73;99316.03;5030220;28;20033;-60
2021/09/05 04:13:48;;;;;;;3.33;1.80;;;;;;;9.88;69.83;99320.97;5031385;28;20106;-60
2021/09/05 04:16:14;;;;;;;1.20;1.05;;;;;;;9.84;69.61;99322.00;5031460;28;20041;-60
2021/09/05 04:18:40;;;;;;;1.63;1.17;;;;;;;9.87;69.49;99319.25;5031677;28;20052;-60
2021/09/05 04:21:06;;;;;;;1.77;0.98;;;;;;;9.91;68.73;99324.28;5031148;28;20045;-61
2021/09/05 04:23:32;;;;;;;2.28;1.30;;;;;;;9.91;68.90;99329.47;5031983;28;20044;-58
2021/09/05 04:25:58;;;;;;;3.40;1.00;;;;;;;10.01;68.23;99327.38;5030296;28;20049;-60
2021/09/05 04:28:23;;;;;;;1.95;1.13;;;;;;;10.10;68.20;99329.66;5031202;28;20042;-60
2021/09/05 04:30:49;;;;;;;1.58;1.05;;;;;;;9.93;67.17;99319.03;5012570;28;20042;-62
2021/09/05 04:33:15;;;;;;;1.95;1.20;;;;;;;9.92;67.69;99323.38;5025378;28;20053;-61
2021/09/05 04:35:40;;;;;;;1.45;0.90;;;;;;;9.98;67.52;99320.56;5031972;28;20095;-60
2021/09/05 04:38:06;;;;;;;3.13;0.80;;;;;;;10.07;66.94;99322.81;5031732;28;20048;-59
2021/09/05 04:40:32;;;;;;;1.20;0.80;;;;;;;9.91;66.24;99326.03;5030721;28;20537;-59
2021/09/05 04:42:57;;;;;;;2.85;1.00;;;;;;;9.87;66.50;99321.84;5029132;28;20037;-59
2021/09/05 04:45:23;;;;;;;1.73;1.10;;;;;;;9.98;66.65;99323.16;5029031;28;20037;-60
2021/09/05 04:47:49;;;;;;;1.92;0.80;;;;;;;10.18;66.28;99336.25;5037275;28;20127;-59
2021/09/05 04:50:14;;;;;;;2.05;1.02;;;;;;;10.21;66.39;99340.47;5037777;28;20180;-59
2021/09/05 04:52:40;;;;;;;3.05;1.00;;;;;;;10.33;66.03;99346.97;5029622;28;20111;-60
2021/09/05 04:55:06;;;;;;;1.70;1.00;;;;;;;10.37;66.00;99361.53;5029027;28;20152;-61
2021/09/05 04:57:32;;;;;;;2.53;1.38;;;;;;;10.41;66.17;99361.38;5029061;28;20051;-62
2021/09/05 04:59:57;;;;;;;2.08;1.10;;;;;;;10.39;66.22;99354.53;5028567;28;20048;-61
2021/09/05 05:02:26;;;;;;;1.90;1.00;;;;;;;10.43;66.14;99369.94;5030677;28;20050;-64
2021/09/05 05:04:51;;;;;;;1.55;0.85;;;;;;;10.57;65.51;99369.41;5031588;28;20087;-64
2021/09/05 05:07:17;;;;;;;1.27;0.95;;;;;;;10.71;65.29;99372.31;5033758;28;20459;-59
2021/09/05 05:09:45;;;;;;;1.70;0.82;;;;;;;10.77;65.69;99374.66;5042834;28;20519;-61
2021/09/05 05:12:14;;;;;;;1.60;0.90;;;;;;;10.80;65.13;99374.53;5048386;28;20041;-61
2021/09/05 05:14:40;;;;;;;1.52;0.85;;;;;;;10.76;65.26;99383.38;5030278;28;20474;-62
2021/09/05 05:17:06;;;;;;;1.83;1.10;;;;;;;10.74;65.30;99382.56;5029400;28;20124;-60
2021/09/05 05:19:31;;;;;;;1.40;0.90;;;;;;;10.76;64.75;99385.13;5031125;28;20046;-59
2021/09/05 05:21:57;;;;;;;1.85;1.10;;;;;;;10.79;64.55;99387.59;5029989;28;20409;-60
2021/09/05 05:24:23;;;;;;;2.90;1.23;;;;;;;10.80;65.91;99389.28;5027122;28;20049;-59
2021/09/05 05:26:49;;;;;;;2.33;0.90;;;;;;;10.68;64.85;99388.00;5025543;28;20420;-61
2021/09/05 05:29:14;;;;;;;2.35;0.70;;;;;;;10.39;64.44;99383.13;5029871;28;20042;-60
2021/09/05 05:31:40;;;;;;;2.13;0.80;;;;;;;10.21;65.39;99400.22;5028859;28;20052;-58
2021/09/05 05:34:06;;;;;;;2.75;1.17;;;;;;;10.20;65.67;99403.75;5026118;28;20068;-59
2021/09/05 05:36:33;;;;;;;1.30;0.90;;;;;;;10.28;65.75;99409.50;5027941;28;20127;-60
2021/09/05 05:38:59;;;;;;;2.58;1.10;;;;;;;10.36;66.04;99402.28;5043517;28;20073;-59
2021/09/05 05:41:24;;;;;;;1.45;0.80;;;;;;;10.39;66.26;99404.75;5030139;28;20582;-60
2021/09/05 05:43:50;;;;;;;1.52;1.10;;;;;;;10.38;65.96;99397.00;5030691;28;20468;-60
2021/09/05 05:46:18;;;;;;;3.40;0.98;;;;;;;10.49;65.93;99395.69;5028260;28;20037;-62
2021/09/05 05:48:44;;;;;;;2.72;1.17;;;;;;;10.60;65.63;99403.94;5030562;28;20038;-62
2021/09/05 05:51:10;;;;;;;1.70;1.10;;;;;;;10.73;64.98;99408.66;5022725;28;20045;-62
2021/09/05 05:53:35;;;;;;;3.05;1.60;;;;;;;10.85;64.80;99403.81;5043520;28;20110;-61
2021/09/05 05:56:02;;;;;;;2.75;1.00;;;;;;;11.05;63.66;99413.41;5038595;28;20099;-61
2021/09/05 05:58:28;;;;;;;1.48;0.88;;;;;;;11.27;62.58;99418.56;5030117;28;20038;-62
2021/09/05 06:00:54;;;;;;;3.13;1.60;;;;;;;11.29;62.48;99427.19;5029829;28;20136;-61
2021/09/05 06:03:21;;;;;;;2.28;1.13;;;;;;;11.34;63.27;99420.03;5030445;28;20115;-62
2021/09/05 06:05:47;;;;;;;2.00;0.95;;;;;;;11.40;63.28;99425.81;5030273;28;20517;-62
2021/09/05 06:08:14;;;;;;;2.10;1.30;;;;;;;11.17;62.96;99399.91;5029525;28;20590;-63
2021/09/05 06:10:40;;;;;;;3.83;1.30;;;;;;;11.41;62.72;99426.66;5030189;28;20034;-63
2021/09/05 06:13:06;;;;;;;4.93;0.85;;;;;;;11.38;62.55;99416.38;5028436;28;20493;-62
2021/09/05 06:15:31;;;;;;;1.25;0.80;;;;;;;11.43;61.49;99427.44;5029977;28;20080;-64
2021/09/05 06:17:57;;;;;;;2.17;1.20;;;;;;;11.47;61.29;99437.66;5029700;28;20076;-62
2021/09/05 06:20:23;;;;;;;2.03;0.80;;;;;;;11.74;60.82;99438.28;5029182;28;20398;-62
2021/09/05 06:22:50;;;;;;;3.58;1.00;;;;;;;11.83;60.75;99440.47;5029885;28;20117;-64
2021/09/05 06:25:16;;;;;;;1.70;1.08;;;;;;;11.71;60.71;99441.00;5026700;28;20041;-61
2021/09/05 06:27:42;;;;;;;2.67;0.80;;;;;;;11.61;61.48;99449.25;5051328;28;20136;-62
2021/09/05 06:30:08;;;;;;;3.20;0.90;;;;;;;11.47;61.31;99458.47;5027651;28;20124;-62
2021/09/05 06:32:33;;;;;;;1.30;0.95;;;;;;;11.29;61.94;99454.06;5027149;28;20045;-63
2021/09/05 06:34:59;;;;;;;2.13;1.00;;;;;;;11.08;62.29;99456.66;5028096;28;20053;-61
2021/09/05 06:37:25;;;;;;;6.50;1.70;;;;;;;11.02;61.70;99456.00;5027668;28;20037;-61
2021/09/05 06:39:51;;;;;;;1.02;0.88;;;;;;;10.88;62.21;99457.47;5026381;28;20048;-62
2021/09/05 06:42:17;;;;;;;1.23;0.80;;;;;;;10.82;62.86;99476.75;5026201;28;20037;-62
2021/09/05 06:44:42;;;;;;;1.58;0.80;;;;;;;10.67;63.05;99473.88;5031282;28;20056;-61
2021/09/05 06:47:08;;;;;;;3.28;1.20;;;;;;;10.62;63.10;99471.47;5026875;28;20033;-62
2021/09/05 06:49:34;;;;;;;3.28;0.80;;;;;;;10.62;63.20;99477.50;5027853;28;20041;-62
2021/09/05 06:52:00;;;;;;;2.05;1.15;;;;;;;10.60;63.84;99488.88;5024101;28;20493;-62
2021/09/05 06:54:26;;;;;;;2.53;1.13;;;;;;;10.65;64.03;99491.28;5028593;28;20132;-62
2021/09/05 06:56:52;;;;;;;5.65;1.50;;;;;;;10.63;64.23;99492.19;5028483;28;20048;-61
2021/09/05 06:59:17;;;;;;;2.55;1.10;;;;;;;10.46;64.04;99506.72;5027542;28;20069;-62
2021/09/05 07:01:43;;;;;;;3.03;1.02;;;;;;;10.44;64.94;99501.59;5027906;28;20037;-63
2021/09/05 07:04:09;;;;;;;3.92;1.55;;;;;;;10.43;64.64;99499.88;5028827;28;20131;-62
2021/09/05 07:06:34;;;;;;;1.80;1.10;;;;;;;10.54;64.88;99515.09;5027772;28;20045;-62
2021/09/05 07:09:00;;;;;;;1.77;1.00;;;;;;;10.54;65.30;99518.53;5010257;28;20106;-61
2021/09/05 07:11:26;;;;;;;4.03;1.40;;;;;;;10.58;65.08;99522.72;5028428;28;20038;-62
2021/09/05 07:13:52;;;;;;;1.25;1.00;;;;;;;10.44;65.56;99529.31;5029196;28;20034;-62
2021/09/05 07:16:18;;;;;;;2.03;1.38;;;;;;;10.31;65.57;99538.47;5028528;28;20045;-62
2021/09/05 07:18:43;;;;;;;4.50;1.42;;;;;;;10.28;65.77;99538.56;5031624;28;20055;-61
2021/09/05 07:21:09;;;;;;;3.15;1.33;;;;;;;10.31;66.78;99541.06;5038605;28;20053;-62
2021/09/05 07:23:35;;;;;;;4.93;1.80;;;;;;;10.32;66.71;99547.94;5032185;28;20048;-61
2021/09/05 07:26:03;;;;;;;2.22;1.70;;;;;;;10.34;66.47;99548.75;5029274;28;20052;-60
2021/09/05 07:28:33;;;;;;;13.73;1.98;;;;;;;10.39;66.80;99547.69;5033106;28;20132;-60
2021/09/05 07:31:00;;;;;;;3.08;1.80;;;;;;;10.41;67.37;99548.50;5027746;28;20103;-59
2021/09/05 07:33:26;;;;;;;2.33;1.30;;;;;;;10.42;67.92;99551.91;5030580;28;20037;-57
2021/09/05 07:35:52;;;;;;;2.22;1.80;;;;;;;10.37;67.63;99557.28;5028076;28;20045;-60
2021/09/05 07:38:18;;;;;;;1.67;1.25;;;;;;;10.34;67.71;99544.41;5042190;28;20051;-57
2021/09/05 07:40:44;;;;;;;2.13;1.40;;;;;;;10.33;67.63;99547.91;5033117;28;20049;-60
2021/09/05 07:43:10;;;;;;;2.40;1.38;;;;;;;10.45;67.26;99568.25;5029061;28;20088;-60
2021/09/05 07:45:36;;;;;;;3.42;1.30;;;;;;;10.47;67.67;99569.03;5031379;28;20041;-59
2021/09/05 07:48:02;;;;;;;1.73;1.15;;;;;;;10.51;67.39;99569.78;5030413;28;20041;-60
2021/09/05 07:50:28;;;;;;;1.40;0.90;;;;;;;10.45;67.83;99573.47;5030076;28;20048;-60
2021/09/05 07:52:54;;;;;;;2.85;1.20;;;;;;;10.39;68.29;99578.88;5028463;28;20520;-60
2021/09/05 07:55:20;;;;;;;1.63;1.17;;;;;;;10.42;68.41;99570.09;5029948;28;20049;-61
2021/09/05 07:57:45;;;;;;;2.10;1.35;;;;;;;10.39;68.37;99565.03;5041737;28;20504;-60
2021/09/05 08:00:12;;;;;;;2.72;1.23;;;;;;;10.44;69.40;99582.16;5039813;28;20045;-60
2021/09/05 08:02:40;;;;;;;;;;;;;;;10.48;69.41;99583.72;5051300;28;20037;-61
2021/09/05 08:05:08;;;;;;;3.05;1.15;;;;;;;10.51;69.62;99567.19;5038591;28;19920;-60
2021/09/05 08:07:34;;;;;;;2.97;1.23;;;;;;;10.63;69.69;99580.59;5039800;28;20083;-61
2021/09/05 08:09:59;;;;;;;2.00;1.20;;;;;;;10.74;69.55;99582.78;5032749;28;20046;-60
2021/09/05 08:12:25;;;;;;;1.90;1.20;;;;;;;10.92;69.26;99579.53;5035429;28;20538;-60
2021/09/05 08:14:54;;;;;;;2.55;1.33;;;;;;;11.30;68.23;99592.84;5044248;28;20073;-60
2021/09/05 08:17:20;;;;;;;3.88;2.60;;;;;;;11.50;66.81;99595.50;5025510;28;20047;-60
2021/09/05 08:19:48;;;;;;;3.53;1.40;;;;;;;11.55;66.31;99579.69;5040247;28;20044;-64
2021/09/05 08:22:14;;;;;;;3.25;1.20;;;;;;;11.57;65.21;99590.88;5041678;28;20056;-67
2021/09/05 08:24:40;;;;;;;1.45;1.17;;;;;;;11.77;65.56;99593.59;5027604;28;20083;-65
2021/09/05 08:27:06;;;;;;;1.23;0.95;;;;;;;12.11;62.08;99595.63;5029726;28;20064;-62
2021/09/05 08:29:32;;;;;;;1.48;0.98;;;;;;;12.15;61.73;99597.19;5029287;28;20136;-63
2021/09/05 08:31:59;;;;;;;1.75;1.17;;;;;;;12.30;60.84;99604.38;5038522;28;20041;-63
2021/09/05 08:34:25;;;;;;;2.90;1.15;;;;;;;12.34;60.47;99608.56;5031228;28;20461;-61
2021/09/05 08:36:50;;;;;;;1.95;0.90;;;;;;;12.48;60.32;99610.56;5029826;28;20099;-60
2021/09/05 08:39:16;;;;;;;2.65;0.88;;;;;;;12.64;60.08;99614.19;5029161;28;20042;-62
2021/09/05 08:41:43;;;;;;;2.92;1.60;;;;;;;12.79;58.87;99603.09;5033573;28;20049;-63
2021/09/05 08:44:09;;;;;;;1.80;0.90;;;;;;;12.81;57.72;99598.66;5054446;28;20136;-62
2021/09/05 08:46:35;;;;;;;5.18;1.30;;;;;;;12.89;57.68;99601.75;5034758;28;20037;-64
2021/09/05 08:49:03;;;;;;;1.08;0.90;;;;;;;13.31;57.56;99609.41;5045115;28;20435;-65
2021/09/05 08:51:30;;;;;;;4.32;1.58;;;;;;;13.34;57.37;99606.69;5049721;28;20136;-64
2021/09/05 08:53:57;;;;;;;3.63;2.50;;;;;;;13.28;57.39;99620.00;5047953;28;20084;-65
2021/09/05 08:56:23;;;;;;;2.42;1.40;;;;;;;13.13;57.80;99621.56;5051264;28;20048;-63
2021/09/05 08:58:48;;;;;;;1.15;0.90;;;;;;;12.82;57.59;99587.31;5047612;28;20508;-64
2021/09/05 09:01:17;;;;;;;2.00;1.10;;;;;;;12.90;57.83;99610.44;5048451;28;20416;-64
2021/09/05 09:03:42;;;;;;;4.85;1.45;;;;;;;13.06;57.66;99627.09;5036433;28;20124;-64
2021/09/05 09:06:08;;;;;;;1.95;1.20;;;;;;;13.07;57.71;99626.19;5045530;28;20488;-65
2021/09/05 09:08:34;;;;;;;1.02;0.80;;;;;;;13.05;57.02;99634.06;5049729;28;20075;-64
2021/09/05 09:11:04;;;;;;;7.18;1.42;;;;;;;13.06;56.53;99627.94;5034708;28;20045;-62
2021/09/05 09:13:30;;;;;;;4.63;1.55;;;;;;;13.27;56.32;99625.31;5039981;28;20040;-65
2021/09/05 09:15:57;;;;;;;1.95;0.80;;;;;;;13.51;54.08;99625.00;5048002;28;20159;-64
2021/09/05 09:18:31;;;;;;;2.55;1.20;;;;;;;13.89;54.09;99615.31;5037530;28;20049;-64
2021/09/05 09:20:58;;;;;;;1.65;0.90;;;;;;;14.21;52.80;99628.56;5036053;28;20082;-62
2021/09/05 09:23:28;;;;;;;2.42;1.20;;;;;;;14.21;52.73;99628.56;5039228;28;20452;-63
2021/09/05 09:25:53;;;;;;;1.98;1.00;;;;;;;14.24;52.99;99636.25;5023951;28;20060;-62
2021/09/05 09:28:29;;;;;;;3.72;0.82;;;;;;;13.94;52.81;99631.63;5040400;28;20083;-63
2021/09/05 09:30:58;;;;;;;2.45;1.35;;;;;;;13.55;53.00;99616.09;5043297;28;20495;-64
2021/09/05 09:33:25;;;;;;;4.18;2.25;;;;;;;13.47;53.53;99627.81;5042903;28;20102;-64
2021/09/05 09:35:59;;;;;;;1.20;1.02;;;;;;;13.34;54.06;99630.19;5050787;28;20140;-62
2021/09/05 09:38:25;;;;;;;1.67;0.93;;;;;;;13.17;54.01;99637.09;5050509;28;20528;-63
2021/09/05 09:41:07;;;;;;;3.35;1.30;;;;;;;12.95;54.97;99643.25;5041490;28;20095;-63
2021/09/05 09:43:33;;;;;;;2.67;1.98;;;;;;;12.86;54.80;99637.59;5024144;28;20128;-65
2021/09/05 09:46:13;;;;;;;1.48;1.20;;;;;;;12.77;54.96;99645.81;5047857;28;20132;-66
2021/09/05 09:48:44;;;;;;;1.38;1.05;;;;;;;12.53;55.72;99650.31;5048830;28;20174;-64
2021/09/05 09:51:11;;;;;;;2.00;1.10;;;;;;;12.45;55.82;99644.59;5046045;28;20127;-63
2021/09/05 09:53:39;;;;;;;1.38;0.90;;;;;;;12.43;55.69;99646.41;5045342;28;20431;-64
2021/09/05 09:56:05;;;;;;;1.95;0.70;;;;;;;12.27;55.42;99649.66;5048894;28;20504;-64
2021/09/05 09:58:31;;;;;;;1.42;1.00;;;;;;;12.40;55.48;99643.94;5046477;28;20040;-64
2021/09/05 10:00:58;;;;;;;2.28;1.20;;;;;;;12.65;54.98;99649.81;5042197;28;20037;-63
2021/09/05 10:03:26;;;;;;;1.20;1.00;;;;;;;12.99;54.39;99641.31;5048701;28;20040;-65
2021/09/05 10:05:53;;;;;;;2.72;1.25;;;;;;;13.21;53.83;99652.53;5047507;28;20037;-63
2021/09/05 10:08:19;;;;;;;2.58;1.33;;;;;;;13.24;53.36;99656.78;5047339;28;20081;-63
2021/09/05 10:10:48;;;;;;;1.30;0.88;;;;;;;13.11;52.75;99652.09;5047697;28;20048;-63
2021/09/05 10:13:14;;;;;;;1.02;0.93;;;;;;;12.95;52.93;99624.97;5035525;28;20044;-62
2021/09/05 10:15:40;;;;;;;2.53;1.30;;;;;;;12.88;53.00;99635.72;5031820;28;20514;-62
2021/09/05 10:18:06;;;;;;;2.40;1.00;;;;;;;12.83;53.32;99648.13;5048476;28;20103;-63
2021/09/05 10:20:32;;;;;;;2.00;0.90;;;;;;;12.54;53.66;99647.66;5031954;28;20437;-64
2021/09/05 10:22:58;;;;;;;2.30;1.25;;;;;;;12.42;53.95;99647.31;5045850;28;20037;-62
2021/09/05 10:25:24;;;;;;;2.47;1.20;;;;;;;12.23;54.40;99642.03;5026371;28;20041;-64
2021/09/05 10:27:50;;;;;;;1.85;0.95;;;;;;;12.12;55.15;99647.69;5044381;28;20049;-66
2021/09/05 10:30:21;;;;;;;2.00;1.00;;;;;;;12.43;54.85;99654.25;5047228;28;20037;-64
2021/09/05 10:32:51;;;;;;;2.55;1.10;;;;;;;12.83;53.94;99654.22;5044591;28;20041;-64
2021/09/05 10:35:30;;;;;;;2.95;1.13;;;;;;;13.41;52.98;99659.44;5048553;28;20045;-65
2021/09/05 10:38:10;;;;;;;1.73;1.20;;;;;;;13.58;51.88;99662.13;5049687;28;20048;-63
2021/09/05 10:40:43;;;;;;;2.55;1.30;;;;;;;13.21;52.27;99647.31;5047704;28;20036;-65
2021/09/05 10:43:09;;;;;;;5.45;2.45;;;;;;;12.86;52.78;99648.03;5047639;28;20045;-64
2021/09/05 10:45:37;;;;;;;3.83;1.13;;;;;;;12.75;52.83;99651.09;5031451;28;20040;-66
2021/09/05 10:48:38;;;;;;;2.08;1.02;;;;;;;12.74;52.95;99647.63;5035378;28;20119;-63
2021/09/05 10:51:08;;;;;;;2.45;1.13;;;;;;;12.66;53.20;99649.75;5047171;28;20509;-65
2021/09/05 10:53:37;;;;;;;1.77;1.20;;;;;;;12.69;53.34;99652.22;5034646;28;20057;-62
2021/09/05 10:56:16;;;;;;;3.63;1.60;;;;;;;13.68;51.66;99652.09;5038696;28;20045;-65
2021/09/05 10:58:56;;;;;;;3.00;1.40;;;;;;;14.84;49.37;99655.88;5033798;28;20044;-62
2021/09/05 11:01:30;;;;;;;1.40;1.10;;;;;;;15.06;47.88;99647.72;5031308;28;20036;-63
2021/09/05 11:06:41;;;;;;;2.10;1.17;;;;;;;15.21;48.26;99650.38;5032777;28;20489;-62
2021/09/05 11:09:25;;;;;;;3.13;1.50;;;;;;;14.96;48.36;99650.00;5027224;28;20033;-62
2021/09/05 11:11:58;;;;;;;2.67;1.30;;;;;;;14.49;49.79;99646.38;5032706;28;20049;-61
2021/09/05 11:14:48;;;;;;;3.38;3.08;;;;;;;15.41;47.51;99651.91;5028418;28;20424;-62
2021/09/05 11:17:20;;;;;;;;;;;;;;;16.41;45.46;99638.34;5030114;28;20050;-61
2021/09/05 11:20:12;;;;;;;2.20;1.23;;;;;;;16.61;44.57;99646.84;5029678;28;19924;-60
2021/09/05 11:22:48;;;;;;;1.50;1.17;;;;;;;16.41;44.73;99643.59;5027634;28;21069;-63
2021/09/05 11:25:21;;;;;;;2.78;1.10;;;;;;;16.34;44.97;99639.63;5027413;28;20152;-62
2021/09/05 11:27:50;;;;;;;3.45;1.40;;;;;;;16.13;45.73;99651.38;5026767;28;20103;-61
2021/09/05 11:30:16;;;;;;;2.05;1.10;;;;;;;15.83;45.63;99635.63;5032580;28;20124;-61
2021/09/05 11:32:44;;;;;;;1.30;1.20;;;;;;;15.55;46.22;99644.16;5033386;28;20049;-61
2021/09/05 11:35:11;;;;;;;1.45;1.08;;;;;;;15.10;46.69;99641.41;5028596;28;20049;-62
2021/09/05 11:37:44;;;;;;;2.58;1.60;;;;;;;14.64;47.37;99642.97;5034705;28;20502;-61
2021/09/05 11:40:19;;;;;;;2.50;1.77;;;;;;;14.45;48.45;99645.66;5032574;28;20055;-61
2021/09/05 11:42:56;;;;;;;2.08;1.40;;;;;;;15.12;47.87;99644.78;5037977;28;20048;-61
2021/09/05 11:45:26;;;;;;;6.60;3.25;;;;;;;16.93;44.19;99625.59;5032431;28;20516;-62
2021/09/05 11:48:00;;;;;;;3.10;1.30;;;;;;;18.30;42.45;99634.34;5030058;28;20103;-63
2021/09/05 11:50:28;;;;;;;1.30;1.15;;;;;;;18.26;40.97;99644.25;5031464;28;20068;-61
2021/09/05 11:52:55;;;;;;;1.90;1.10;;;;;;;17.65;41.84;99645.59;5043558;28;20483;-61
2021/09/05 11:55:22;;;;;;;1.48;1.10;;;;;;;17.07;42.29;99647.53;5040467;28;20307;-60
2021/09/05 11:57:57;;;;;;;2.03;1.48;;;;;;;17.03;43.01;99643.41;5030456;28;20091;-64
2021/09/05 12:00:32;;;;;;;2.78;1.77;;;;;;;17.05;42.39;99629.25;5043633;28;20127;-62